Impacts TAF Board INFO
FOR SITUATIONAL AWARENESS. NOT TO BE USED FOR FLIGHT PLANNING PURPOSES.
IDs:

KATL - Atlanta/Hartsfield-J, GA, US

Issued at 1123 UTC 20 Jan 2018
Updated at 1305 UTC 20 Jan 2018
Potential Impact None Slight Moderate High
Time<<21/14Z 21/15Z 21/16Z 21/17Z 21/18Z 21/19Z 21/20Z 21/21Z 21/22Z 21/23Z 22/00Z 22/01Z 22/02Z
Type PRVL PRVL PRVL PRVL
VIS 6 6 6 6
CIG -- -- -- --
Cover SCT SCT SCT SCT
FltCat VFR VFR VFR VFR
WX BR BR BR BR
WDir VRB VRB VRB VRB
WSpd 3 3 3 3
WGst -- -- -- --

Raw TAF
KATL 201123Z 2012/2118 29006KT P6SM BKN035
  FM201600 30007KT P6SM SCT035
  FM210300 27003KT P6SM SCT040 SCT250
  FM211200 VRB03KT 6SM BR SCT250


METAR Board
Radar Display
Forecast Discussion

FOR SITUATIONAL AWARENESS. NOT TO BE USED FOR FLIGHT PLANNING PURPOSES.